Aeroporto :
LOGIN :

Iscrizione | Disclaimer

   EN    FR    IT 

 










Sommario :    VFR   VFR Marginale   IFR   IFR Intensivo   IFR Molto Intensivo
Visibilità : 
Base nubi : 
>= 8 km
>= 3000ft
5 / 8 km
1000 / 3000 ft
1500m / 5 km
500 / 1000 ft
800 / 1500m
200 / 500 ft
< 800m
< 200 ft
Simboli :   Temporali  Nebbia  Neve Forte  Precipitazioni Forti  Vento > 20 kt
SIGMETs :   Varie  Temporali  Ghiacco  Turbolenza  Onda orograficha  Ceneri Vulcaniche






- Altitudine del aeroporto : 2356 ft


LZTT - Poprad Tatry

ULTIMO METAR :
  • 131700Z 04010KT 9999 FEW020 FEW063CB 24/19 Q1014 NOSIG

METARs OBSOLETI :
  • 131630Z 05010KT 9999 FEW063CB 25/20 Q1014 NOSIG
  • 131600Z 04009KT 330V070 9999 FEW063CB 27/21 Q1014 NOSIG
  • 131530Z 27007KT 9999 -SHRA FEW063CB 29/16 Q1013 TEMPO TSRA SCT050CB
  • 131500Z 23006KT 210V270 9999 FEW063CB 30/15 Q1013 TEMPO TSRA SCT050CB
  • 131430Z 24009KT 9999 FEW066 31/16 Q1013 NOSIG
  • 131400Z 26010KT 220V290 9999 FEW063CB 31/16 Q1013 NOSIG
  • 131330Z 28012KT 9999 FEW060 31/16 Q1013 NOSIG
  • 131300Z 26012KT 220V280 9999 FEW053CB 32/16 Q1013 NOSIG
  • 131230Z 28012KT 9999 FEW053TCU 31/15 Q1013 NOSIG

TAF TAF LZTT
Valido dal 13 a 12 ore il 14 a 12 ore UTC


131115Z 1312/1412 24008KT 9999 FEW055
TEMPO 1312/1318 26015G30KT 4000 TSRA FEW040CB BKN050
TEMPO 1321/1406 2000 TSRA FEW012 SCT025CB BKN033
BECMG 1406/1408 09005KT
TEMPO 1410/1412 4000 TSRA FEW035CB BKN040



MetMap, La meteo Aeronautica in un colpo d'occhio ! - Copyright ORBIFLY Dicembre 2007 - Disclaimer

ORBIFLY MET'MAP TEAM :

Programmazione e sviluppo : Alexandra Zaïnal
Concezione : Baudouin d'Aumeries
Supporto tecnico e logistico : Manuel Goepfert
Aiuto : Marc-Olivier Méhu
Aiuto per la traduzione : Arnaldo La Scala




FONTI E CREDITI :

   NOAA